createdAt,value
2019-04-28T00:00:48.313Z,11.20
2019-04-28T00:03:17.586Z,11.30
2019-04-28T00:05:46.883Z,11.30
2019-04-28T00:08:16.154Z,11.20
2019-04-28T00:10:45.450Z,11.20
2019-04-28T00:13:14.898Z,11.20
2019-04-28T00:15:51.693Z,11.30
2019-04-28T00:18:24.455Z,11.30
2019-04-28T00:20:55.363Z,11.30
2019-04-28T00:23:28.962Z,11.20
2019-04-28T00:26:21.815Z,11.00
2019-04-28T00:28:51.330Z,10.80
2019-04-28T00:31:21.311Z,10.70
2019-04-28T00:33:51.624Z,10.60
2019-04-28T00:36:43.930Z,10.50
2019-04-28T00:39:16.939Z,10.50
2019-04-28T00:41:47.766Z,10.40
2019-04-28T00:44:18.610Z,10.30
2019-04-28T00:47:08.598Z,10.20
2019-04-28T00:49:46.731Z,10.20
2019-04-28T00:52:18.142Z,10.20
2019-04-28T00:54:47.568Z,10.20
2019-04-28T00:57:16.830Z,10.30
2019-04-28T00:59:55.165Z,10.30
2019-04-28T01:02:21.332Z,10.30
2019-04-28T01:04:51.462Z,10.30
2019-04-28T01:07:21.251Z,10.40
2019-04-28T01:09:51.652Z,10.40
2019-04-28T01:12:21.450Z,10.40
2019-04-28T01:14:52.929Z,10.30
2019-04-28T01:17:40.997Z,10.20
2019-04-28T01:20:14.828Z,10.20
2019-04-28T01:22:43.385Z,10.20
2019-04-28T01:25:13.724Z,10.10
2019-04-28T01:27:46.123Z,10.00
2019-04-28T01:30:23.175Z,10.00
2019-04-28T01:32:57.132Z,9.90
2019-04-28T01:35:26.377Z,9.90
2019-04-28T01:37:55.633Z,9.90
2019-04-28T01:40:26.538Z,9.80
2019-04-28T01:42:55.778Z,9.80
2019-04-28T01:45:24.974Z,9.80
2019-04-28T01:47:54.254Z,9.70
2019-04-28T01:50:23.503Z,9.70
2019-04-28T01:52:52.778Z,9.70
2019-04-28T01:55:22.102Z,9.70
2019-04-28T01:57:51.358Z,9.60
2019-04-28T02:00:25.289Z,9.60
2019-04-28T02:02:51.962Z,9.60
2019-04-28T02:05:21.214Z,9.70
2019-04-28T02:07:50.653Z,9.70
2019-04-28T02:10:21.748Z,9.70
2019-04-28T02:12:52.798Z,9.70
2019-04-28T02:15:22.953Z,9.70
2019-04-28T02:17:52.207Z,9.80
2019-04-28T02:20:22.846Z,9.80
2019-04-28T02:23:04.727Z,9.80
2019-04-28T02:25:35.353Z,9.80
2019-04-28T02:28:04.597Z,9.70
2019-04-28T02:30:45.482Z,9.70
2019-04-28T02:33:08.202Z,9.70
2019-04-28T02:35:37.569Z,9.70
2019-04-28T02:38:26.374Z,9.70
2019-04-28T02:40:55.586Z,9.70
2019-04-28T02:43:24.823Z,9.70
2019-04-28T02:45:54.075Z,9.70
2019-04-28T02:48:24.983Z,9.70
2019-04-28T02:51:07.839Z,9.70
2019-04-28T02:53:47.149Z,9.70
2019-04-28T02:56:16.415Z,9.70
2019-04-28T02:58:51.050Z,9.80
2019-04-28T03:01:26.241Z,9.80
2019-04-28T03:03:51.386Z,9.80
2019-04-28T03:06:20.846Z,9.80
2019-04-28T03:08:50.674Z,9.80
2019-04-28T03:11:41.231Z,9.80
2019-04-28T03:14:23.202Z,9.80
2019-04-28T03:16:53.491Z,9.80
2019-04-28T03:19:24.774Z,9.80
2019-04-28T03:21:55.683Z,9.80
2019-04-28T03:24:26.846Z,9.80
2019-04-28T03:26:57.745Z,9.80
2019-04-28T03:29:31.365Z,9.70
2019-04-28T03:32:32.762Z,9.70
2019-04-28T03:34:53.976Z,9.70
2019-04-28T03:37:23.495Z,9.70
2019-04-28T03:39:51.622Z,9.80
2019-04-28T03:42:41.351Z,9.80
2019-04-28T03:45:21.170Z,9.70
2019-04-28T03:47:51.003Z,9.70
2019-04-28T03:50:22.323Z,9.70
2019-04-28T03:52:51.602Z,9.70
2019-04-28T03:55:21.352Z,9.70
2019-04-28T03:58:03.147Z,9.70
2019-04-28T04:00:32.376Z,9.70
2019-04-28T04:03:01.548Z,9.70
2019-04-28T04:05:30.985Z,9.70
2019-04-28T04:08:01.062Z,9.70
2019-04-28T04:10:31.980Z,9.70
2019-04-28T04:13:02.891Z,9.70
2019-04-28T04:15:49.460Z,9.60
2019-04-28T04:18:20.738Z,9.60
2019-04-28T04:20:51.238Z,9.60
2019-04-28T04:23:22.877Z,9.60
2019-04-28T04:25:51.317Z,9.50
2019-04-28T04:28:20.833Z,9.60
2019-04-28T04:30:50.977Z,9.50
2019-04-28T04:33:27.338Z,9.50
2019-04-28T04:36:16.028Z,9.50
2019-04-28T04:38:46.482Z,9.50
2019-04-28T04:41:15.838Z,9.50
2019-04-28T04:43:45.029Z,9.50
2019-04-28T04:46:15.977Z,9.60
2019-04-28T04:48:57.201Z,9.60
2019-04-28T04:51:27.354Z,9.70
2019-04-28T04:53:56.598Z,9.70
2019-04-28T04:56:27.470Z,9.80
2019-04-28T04:58:56.759Z,9.80
2019-04-28T05:01:27.643Z,9.80
2019-04-28T05:03:59.647Z,9.80
2019-04-28T05:06:42.220Z,9.80
2019-04-28T05:09:11.558Z,9.80
2019-04-28T05:11:40.807Z,9.80
2019-04-28T05:14:11.921Z,9.70
2019-04-28T05:16:40.947Z,9.70
2019-04-28T05:19:10.595Z,9.70
2019-04-28T05:21:40.427Z,9.70
2019-04-28T05:24:33.413Z,9.70
2019-04-28T05:27:02.762Z,9.80
2019-04-28T05:29:32.013Z,9.80
2019-04-28T05:32:03.280Z,9.80
2019-04-28T05:34:32.170Z,9.70
2019-04-28T05:37:01.440Z,9.80
2019-04-28T05:39:31.658Z,9.80
2019-04-28T05:42:01.125Z,9.80
2019-04-28T05:44:32.162Z,9.80
2019-04-28T05:47:02.470Z,9.80
2019-04-28T05:50:02.686Z,9.80
2019-04-28T05:52:41.226Z,9.90
2019-04-28T05:55:25.316Z,9.80
2019-04-28T05:57:56.727Z,9.90
2019-04-28T06:00:39.730Z,9.80
2019-04-28T06:03:20.463Z,9.80
2019-04-28T06:06:10.232Z,9.80
2019-04-28T06:09:04.690Z,9.70
2019-04-28T06:11:41.346Z,9.70
2019-04-28T06:14:10.543Z,9.60
2019-04-28T06:16:40.679Z,9.60
2019-04-28T06:19:10.400Z,9.60
2019-04-28T06:21:39.749Z,9.40
2019-04-28T06:24:09.058Z,9.50
2019-04-28T06:26:38.266Z,9.50
2019-04-28T06:29:07.517Z,9.50
2019-04-28T06:31:36.763Z,9.50
2019-04-28T06:34:06.020Z,9.60
2019-04-28T06:36:35.811Z,9.60
2019-04-28T06:39:07.275Z,9.60
2019-04-28T06:41:36.534Z,9.60
2019-04-28T06:44:05.770Z,9.70
2019-04-28T06:46:35.014Z,9.80
2019-04-28T06:49:17.683Z,9.90
2019-04-28T06:51:49.937Z,10.00
2019-04-28T06:54:18.883Z,10.00
2019-04-28T06:56:48.119Z,10.00
2019-04-28T06:59:17.394Z,10.00
2019-04-28T07:01:48.376Z,10.00
2019-04-28T07:04:19.302Z,10.00
2019-04-28T07:07:01.272Z,9.90
2019-04-28T07:09:30.577Z,9.90
2019-04-28T07:11:59.823Z,10.00
2019-04-28T07:14:29.095Z,10.00
2019-04-28T07:16:58.371Z,10.00
2019-04-28T07:19:27.603Z,10.00
2019-04-28T07:21:59.590Z,10.00
2019-04-28T07:24:28.862Z,10.00
2019-04-28T07:26:58.197Z,10.10
2019-04-28T07:29:27.396Z,10.30
2019-04-28T07:31:56.644Z,10.50
2019-04-28T07:34:28.620Z,10.70
2019-04-28T07:36:57.795Z,10.80
2019-04-28T07:39:27.065Z,11.00
2019-04-28T07:42:09.018Z,11.00
2019-04-28T07:44:38.277Z,11.10
2019-04-28T07:47:07.587Z,11.20
2019-04-28T07:49:36.829Z,11.40
2019-04-28T07:52:16.700Z,11.40
2019-04-28T07:54:46.047Z,11.60
2019-04-28T07:57:15.286Z,11.80
2019-04-28T07:59:44.510Z,12.00
2019-04-28T08:02:14.930Z,12.10
2019-04-28T08:04:45.270Z,12.30
2019-04-28T08:07:14.533Z,12.40
2019-04-28T08:09:44.820Z,12.50
2019-04-28T08:12:14.093Z,12.60
2019-04-28T08:14:43.414Z,12.50
2019-04-28T08:17:13.778Z,12.40
2019-04-28T08:19:43.006Z,12.30
2019-04-28T08:22:12.187Z,12.20
2019-04-28T08:24:41.474Z,12.20
2019-04-28T08:27:10.771Z,12.30
2019-04-28T08:29:39.939Z,12.40
2019-04-28T08:32:13.728Z,12.50
2019-04-28T08:34:42.323Z,12.50
2019-04-28T08:37:11.543Z,12.40
2019-04-28T08:39:40.803Z,12.40
2019-04-28T08:42:10.082Z,12.30
2019-04-28T08:44:39.340Z,12.20
2019-04-28T08:47:08.606Z,12.00
2019-04-28T08:49:38.098Z,11.90
2019-04-28T08:52:08.501Z,11.90
2019-04-28T08:54:39.034Z,11.90
2019-04-28T08:57:08.313Z,11.90
2019-04-28T08:59:37.557Z,11.80
2019-04-28T09:02:06.820Z,11.80
2019-04-28T09:04:36.070Z,11.80
2019-04-28T09:07:05.350Z,11.80
2019-04-28T09:09:34.606Z,12.00
2019-04-28T09:12:03.951Z,12.10
2019-04-28T09:14:33.218Z,12.10
2019-04-28T09:17:02.417Z,12.10
2019-04-28T09:19:31.818Z,12.20
2019-04-28T09:22:01.082Z,12.30
2019-04-28T09:24:30.419Z,12.40
2019-04-28T09:26:59.699Z,12.50
2019-04-28T09:29:28.955Z,12.40
2019-04-28T09:31:58.725Z,12.50
2019-04-28T09:34:28.766Z,12.70
2019-04-28T09:36:58.147Z,12.80
2019-04-28T09:39:45.114Z,12.90
2019-04-28T09:47:44.843Z,12.80
2019-04-28T09:50:14.105Z,12.70
2019-04-28T09:52:55.666Z,12.60
2019-04-28T09:55:25.514Z,12.60
2019-04-28T09:57:54.978Z,12.60
2019-04-28T10:00:26.612Z,12.60
2019-04-28T10:02:55.857Z,12.60
2019-04-28T10:05:25.180Z,12.50
2019-04-28T10:07:55.510Z,12.40
2019-04-28T10:10:24.839Z,12.40
2019-04-28T10:12:54.111Z,12.50
2019-04-28T10:15:23.482Z,12.50
2019-04-28T10:18:00.705Z,12.60
2019-04-28T10:20:29.997Z,12.70
2019-04-28T10:22:59.259Z,12.80
2019-04-28T10:25:34.520Z,13.10
2019-04-28T10:28:03.711Z,13.30
2019-04-28T10:30:33.050Z,13.50
2019-04-28T10:33:02.313Z,13.70
2019-04-28T10:35:31.597Z,13.80
2019-04-28T10:38:00.870Z,13.80
2019-04-28T10:40:42.973Z,13.70
2019-04-28T10:43:12.303Z,13.70
2019-04-28T10:46:03.578Z,13.80
2019-04-28T10:48:32.855Z,13.80
2019-04-28T10:51:02.666Z,13.80
2019-04-28T10:53:31.919Z,13.90
2019-04-28T10:56:01.186Z,13.90
2019-04-28T10:58:30.462Z,13.90
2019-04-28T11:00:59.726Z,14.00
2019-04-28T11:03:36.598Z,14.30
2019-04-28T11:06:05.790Z,14.70
2019-04-28T11:08:36.761Z,15.40
2019-04-28T11:11:07.616Z,16.10
2019-04-28T11:13:36.868Z,16.20
2019-04-28T11:16:06.203Z,16.30
2019-04-28T11:18:35.458Z,16.30
2019-04-28T11:21:06.035Z,16.30
2019-04-28T11:23:35.354Z,16.10
2019-04-28T11:26:04.638Z,15.80
2019-04-28T11:28:33.938Z,15.40
2019-04-28T11:31:03.205Z,14.80
2019-04-28T11:33:46.124Z,14.40
2019-04-28T11:36:17.127Z,14.00
2019-04-28T11:38:46.394Z,13.70
2019-04-28T11:41:15.991Z,13.50
2019-04-28T11:43:46.918Z,13.30
2019-04-28T11:46:18.214Z,13.30
2019-04-28T11:48:47.398Z,13.40
2019-04-28T11:51:17.571Z,13.50
2019-04-28T11:53:52.872Z,13.70
2019-04-28T11:56:22.259Z,13.80
2019-04-28T11:58:51.547Z,13.90
2019-04-28T12:01:21.891Z,13.90
2019-04-28T12:03:52.829Z,14.00
2019-04-28T12:06:22.101Z,14.00
2019-04-28T12:08:53.034Z,14.00
2019-04-28T12:11:27.074Z,14.00
2019-04-28T12:14:04.099Z,13.90
2019-04-28T12:16:51.158Z,14.00
2019-04-28T12:19:28.584Z,13.90
2019-04-28T12:21:58.828Z,14.00
2019-04-28T12:24:29.316Z,14.00
2019-04-28T12:26:58.563Z,14.10
2019-04-28T12:29:35.201Z,14.00
2019-04-28T12:32:05.586Z,14.00
2019-04-28T12:34:34.834Z,13.90
2019-04-28T12:37:03.998Z,13.90
2019-04-28T12:39:36.455Z,13.80
2019-04-28T12:42:05.686Z,13.70
2019-04-28T12:44:34.902Z,13.80
2019-04-28T12:47:05.772Z,13.90
2019-04-28T12:49:45.968Z,14.00
2019-04-28T12:52:15.282Z,14.20
2019-04-28T12:54:44.795Z,14.40
2019-04-28T12:57:21.293Z,14.60
2019-04-28T12:59:53.214Z,14.70
2019-04-28T13:02:42.230Z,14.90
2019-04-28T13:05:15.823Z,15.20
2019-04-28T13:07:46.210Z,15.50
2019-04-28T13:10:15.710Z,15.70
2019-04-28T13:12:46.254Z,15.80
2019-04-28T13:15:15.517Z,16.00
2019-04-28T13:17:44.860Z,16.00
2019-04-28T13:20:20.542Z,16.00
2019-04-28T13:22:49.809Z,16.10
2019-04-28T13:25:35.005Z,16.10
2019-04-28T13:28:04.269Z,15.90
2019-04-28T13:30:33.514Z,15.50
2019-04-28T13:33:02.817Z,15.30
2019-04-28T13:35:32.571Z,15.10
2019-04-28T13:38:01.967Z,14.90
2019-04-28T13:40:32.832Z,14.70
2019-04-28T13:43:03.764Z,14.60
2019-04-28T13:45:33.037Z,14.40
2019-04-28T13:48:02.378Z,14.30
2019-04-28T13:50:33.305Z,14.30
2019-04-28T13:53:02.562Z,14.10
2019-04-28T13:55:48.486Z,13.90
2019-04-28T13:58:19.460Z,13.80
2019-04-28T14:00:57.761Z,13.70
2019-04-28T14:03:31.695Z,13.70
2019-04-28T14:06:28.043Z,13.70
2019-04-28T14:08:49.086Z,13.60
2019-04-28T14:11:18.311Z,13.70
2019-04-28T14:13:49.365Z,13.70
2019-04-28T14:16:19.788Z,13.70
2019-04-28T14:18:49.177Z,13.80
2019-04-28T14:21:18.457Z,13.90
2019-04-28T14:23:47.814Z,14.00
2019-04-28T14:26:17.150Z,14.10
2019-04-28T14:28:46.487Z,14.10
2019-04-28T14:31:18.913Z,14.00
2019-04-28T14:33:50.285Z,13.70
2019-04-28T14:36:20.600Z,13.60
2019-04-28T14:38:50.245Z,13.70
2019-04-28T14:41:19.566Z,13.70
2019-04-28T14:43:48.904Z,13.70
2019-04-28T14:46:18.121Z,13.80
2019-04-28T14:48:49.477Z,14.00
2019-04-28T14:51:18.712Z,13.80
2019-04-28T14:53:47.975Z,13.50
2019-04-28T14:56:17.226Z,13.10
2019-04-28T14:58:46.555Z,12.80
2019-04-28T15:01:20.226Z,12.60
2019-04-28T15:03:53.107Z,12.50
2019-04-28T15:06:31.913Z,12.50
2019-04-28T15:09:08.629Z,12.40
2019-04-28T15:11:44.192Z,12.30
2019-04-28T15:14:12.754Z,12.30
2019-04-28T15:16:41.877Z,12.40
2019-04-28T15:19:11.222Z,12.40
2019-04-28T15:21:46.048Z,12.40
2019-04-28T15:24:16.690Z,12.50
2019-04-28T15:26:45.941Z,12.60
2019-04-28T15:29:15.142Z,12.60
2019-04-28T15:31:44.337Z,12.70
2019-04-28T15:34:13.636Z,12.80
2019-04-28T15:36:42.886Z,12.90
2019-04-28T15:39:18.275Z,13.00
2019-04-28T15:41:47.622Z,13.10
2019-04-28T15:44:16.879Z,13.30
2019-04-28T15:46:46.144Z,13.40
2019-04-28T15:49:15.406Z,13.50
2019-04-28T15:51:44.674Z,13.60
2019-04-28T15:54:13.965Z,13.60
2019-04-28T15:56:45.011Z,13.60
2019-04-28T15:59:15.811Z,13.40
2019-04-28T16:01:45.058Z,13.50
2019-04-28T16:04:14.311Z,13.40
2019-04-28T16:06:43.583Z,13.50
2019-04-28T16:09:12.928Z,13.60
2019-04-28T16:11:48.055Z,13.60
2019-04-28T16:14:17.311Z,13.60
2019-04-28T16:16:46.573Z,13.50
2019-04-28T16:19:15.848Z,13.60
2019-04-28T16:21:46.198Z,13.60
2019-04-28T16:24:15.547Z,13.40
2019-04-28T16:26:44.823Z,13.40
2019-04-28T16:29:14.087Z,13.30
2019-04-28T16:31:43.415Z,13.30
2019-04-28T16:34:12.778Z,13.20
2019-04-28T16:36:42.103Z,13.20
2019-04-28T16:39:11.372Z,13.20
2019-04-28T16:41:44.482Z,13.30
2019-04-28T16:44:15.786Z,13.20
2019-04-28T16:46:59.110Z,13.30
2019-04-28T16:49:30.009Z,13.20
2019-04-28T16:51:59.178Z,13.20
2019-04-28T16:54:42.243Z,13.20
2019-04-28T16:57:28.120Z,13.10
2019-04-28T16:59:59.043Z,13.00
2019-04-28T17:02:29.928Z,13.00
2019-04-28T17:05:12.096Z,13.10
2019-04-28T17:07:53.917Z,13.20
2019-04-28T17:10:23.109Z,13.10
2019-04-28T17:12:52.355Z,13.00
2019-04-28T17:15:21.682Z,12.80
2019-04-28T17:17:51.143Z,12.80
2019-04-28T17:20:20.425Z,12.70
2019-04-28T17:22:49.691Z,12.60
2019-04-28T17:25:18.961Z,12.50
2019-04-28T17:27:49.284Z,12.40
2019-04-28T17:30:19.989Z,12.30
2019-04-28T17:33:01.774Z,12.20
2019-04-28T17:35:31.128Z,12.00
2019-04-28T17:38:06.857Z,11.90
2019-04-28T17:40:50.700Z,11.90
2019-04-28T17:43:19.966Z,11.80
2019-04-28T17:45:49.294Z,11.70
2019-04-28T17:48:29.222Z,11.60
2019-04-28T17:50:59.768Z,11.60
2019-04-28T17:53:29.054Z,11.60
2019-04-28T17:55:58.875Z,11.50
2019-04-28T17:58:30.635Z,11.60
2019-04-28T18:01:04.701Z,11.60
2019-04-28T18:03:38.559Z,11.60
2019-04-28T18:06:18.018Z,11.70
2019-04-28T18:08:45.470Z,11.70
2019-04-28T18:11:15.089Z,11.80
2019-04-28T18:13:44.362Z,11.90
2019-04-28T18:16:31.781Z,11.90
2019-04-28T18:19:16.671Z,11.90
2019-04-28T18:21:45.925Z,12.00
2019-04-28T18:24:16.170Z,12.00
2019-04-28T18:26:45.517Z,11.90
2019-04-28T18:29:14.876Z,11.90
2019-04-28T18:31:48.442Z,12.00
2019-04-28T18:34:22.342Z,12.00
2019-04-28T18:36:58.545Z,12.00
2019-04-28T18:39:29.341Z,12.00
2019-04-28T18:42:16.867Z,12.00
2019-04-28T18:44:46.106Z,11.90
2019-04-28T18:47:21.155Z,11.90
2019-04-28T18:49:51.421Z,11.80
2019-04-28T18:52:20.626Z,11.80
2019-04-28T18:54:49.895Z,11.80
2019-04-28T18:57:19.175Z,11.70
2019-04-28T18:59:48.894Z,11.60
2019-04-28T19:02:32.566Z,11.60
2019-04-28T19:05:01.826Z,11.60
2019-04-28T19:07:34.751Z,11.50
2019-04-28T19:10:06.172Z,11.60
2019-04-28T19:12:38.369Z,11.50
2019-04-28T19:15:11.881Z,11.40
2019-04-28T19:17:42.957Z,11.40
2019-04-28T19:20:13.761Z,11.30
2019-04-28T19:22:44.110Z,11.30
2019-04-28T19:25:16.383Z,11.20
2019-04-28T19:27:45.654Z,11.10
2019-04-28T19:30:15.053Z,11.00
2019-04-28T19:32:45.165Z,11.00
2019-04-28T19:35:14.472Z,10.90
2019-04-28T19:37:43.826Z,10.80
2019-04-28T19:40:25.662Z,10.80
2019-04-28T19:42:55.064Z,10.80
2019-04-28T19:45:24.373Z,10.70
2019-04-28T19:47:53.638Z,10.70
2019-04-28T19:50:22.899Z,10.70
2019-04-28T19:52:56.593Z,10.70
2019-04-28T19:55:25.014Z,10.60
2019-04-28T19:57:58.348Z,10.60
2019-04-28T20:00:29.246Z,10.60
2019-04-28T20:02:58.511Z,10.50
2019-04-28T20:05:27.689Z,10.40
2019-04-28T20:07:57.126Z,10.40
2019-04-28T20:10:26.453Z,10.30
2019-04-28T20:12:55.722Z,10.30
2019-04-28T20:15:24.996Z,10.30
2019-04-28T20:17:55.681Z,10.30
2019-04-28T20:20:25.046Z,10.40
2019-04-28T20:22:54.363Z,10.40
2019-04-28T20:25:23.788Z,10.40
2019-04-28T20:27:53.101Z,10.30
2019-04-28T20:30:22.385Z,10.30
2019-04-28T20:32:51.712Z,10.30
2019-04-28T20:35:25.345Z,10.20
2019-04-28T20:38:03.303Z,10.20
2019-04-28T20:40:37.897Z,10.10
2019-04-28T20:43:16.694Z,10.10
2019-04-28T20:45:48.227Z,10.10
2019-04-28T20:48:29.618Z,10.20
2019-04-28T20:50:58.867Z,10.20
2019-04-28T20:53:28.218Z,10.10
2019-04-28T20:55:57.582Z,10.10
2019-04-28T20:58:26.935Z,10.00
2019-04-28T21:01:08.842Z,9.90
2019-04-28T21:03:38.628Z,9.90
2019-04-28T21:06:07.954Z,9.90
2019-04-28T21:08:37.239Z,9.80
2019-04-28T21:11:06.448Z,9.80
2019-04-28T21:13:35.722Z,9.80
2019-04-28T21:16:04.920Z,9.80
2019-04-28T21:18:34.189Z,9.80
2019-04-28T21:21:03.442Z,9.80
2019-04-28T21:23:46.258Z,9.80
2019-04-28T21:26:18.095Z,9.80
2019-04-28T21:28:47.371Z,9.80
2019-04-28T21:31:16.617Z,9.80
2019-04-28T21:33:45.890Z,9.70
2019-04-28T21:36:15.147Z,9.70
2019-04-28T21:38:44.396Z,9.70
2019-04-28T21:41:15.130Z,9.60
2019-04-28T21:43:46.086Z,9.60
2019-04-28T21:46:17.011Z,9.60
2019-04-28T21:48:47.929Z,9.50
2019-04-28T21:51:17.159Z,9.60
2019-04-28T21:53:46.463Z,9.60
2019-04-28T21:56:15.646Z,9.50
2019-04-28T21:58:47.627Z,9.50
2019-04-28T22:01:19.034Z,9.50
2019-04-28T22:03:48.484Z,9.50
2019-04-28T22:06:40.074Z,9.50
2019-04-28T22:09:09.766Z,9.50
2019-04-28T22:11:40.628Z,9.40
2019-04-28T22:14:09.886Z,9.40
2019-04-28T22:16:39.130Z,9.40
2019-04-28T22:19:08.350Z,9.40
2019-04-28T22:21:37.581Z,9.40
2019-04-28T22:24:11.332Z,9.40
2019-04-28T22:27:00.903Z,9.30
2019-04-28T22:29:30.161Z,9.30
2019-04-28T22:31:59.354Z,9.40
2019-04-28T22:34:28.608Z,9.40
2019-04-28T22:36:57.879Z,9.40
2019-04-28T22:39:27.120Z,9.40
2019-04-28T22:41:56.374Z,9.40
2019-04-28T22:44:25.633Z,9.40
2019-04-28T22:46:54.895Z,9.40
2019-04-28T22:49:24.158Z,9.40
2019-04-28T22:52:05.896Z,9.30
2019-04-28T22:54:48.919Z,9.30
2019-04-28T22:57:22.255Z,9.30
2019-04-28T22:59:56.091Z,9.20
2019-04-28T23:02:26.470Z,9.20
2019-04-28T23:04:57.413Z,9.10
2019-04-28T23:07:26.722Z,9.10
2019-04-28T23:09:56.059Z,9.10
2019-04-28T23:12:25.323Z,9.00
2019-04-28T23:14:54.664Z,9.00
2019-04-28T23:17:24.521Z,9.00
2019-04-28T23:19:53.908Z,9.00
2019-04-28T23:22:24.801Z,8.90
2019-04-28T23:24:54.071Z,8.90
2019-04-28T23:27:27.512Z,9.00
2019-04-28T23:29:56.770Z,8.90
2019-04-28T23:32:25.954Z,9.00
2019-04-28T23:34:55.201Z,9.10
2019-04-28T23:37:24.470Z,9.00
2019-04-28T23:39:53.751Z,9.00
2019-04-28T23:42:24.618Z,9.10
2019-04-28T23:44:53.949Z,9.10
2019-04-28T23:47:23.188Z,9.00
2019-04-28T23:49:53.489Z,8.90
2019-04-28T23:52:24.407Z,8.90
2019-04-28T23:54:55.306Z,8.80
2019-04-28T23:57:43.993Z,8.80
